Time;durP1;ratioP1;P1;durP2;ratioP2;P2;SDS_P1;SDS_P2;PMS_P1;PMS_P2;Temp;Humidity;BMP_temperature;BMP_pressure;BME280_temperature;BME280_humidity;BME280_pressure;Samples;Min_cycle;Max_cycle;Signal;HPM_P1;HPM_P2
2021/12/13 19:29:32;;;;;;;6.93;3.75;;;;;;;;;;5028507;28;92108;-64
2021/12/13 19:32:00;;;;;;;19.42;3.17;;;;;;;;;;5002945;28;92776;-65
2021/12/13 19:34:34;;;;;;;5.32;2.45;;;;;;;;;;5002582;28;92256;-65
2021/12/13 19:37:03;;;;;;;7.47;3.90;;;;;;;;;;5005734;28;92134;-65
2021/12/13 19:39:43;;;;;;;4.93;2.05;;;;;;;;;;4995405;28;91727;-66
2021/12/13 19:42:17;;;;;;;9.85;2.25;;;;;;;;;;5011195;28;92146;-65
2021/12/13 19:44:46;;;;;;;3.67;1.98;;;;;;;;;;5001740;28;92033;-66
2021/12/13 19:47:14;;;;;;;3.65;1.98;;;;;;;;;;4998608;28;92022;-66
2021/12/13 19:49:49;;;;;;;5.90;1.95;;;;;;;;;;5002484;28;91807;-66
2021/12/13 19:52:18;;;;;;;11.85;2.30;;;;;;;;;;4985655;28;91964;-63
2021/12/13 19:54:52;;;;;;;12.40;1.95;;;;;;;;;;4999173;28;92326;-65
2021/12/13 19:57:21;;;;;;;3.88;2.10;;;;;;;;;;4996347;28;92112;-64
2021/12/13 19:59:49;;;;;;;9.32;2.13;;;;;;;;;;4995688;28;93073;-65
2021/12/13 20:02:44;;;;;;;16.00;2.10;;;;;;;;;;4992208;28;91985;-65
2021/12/13 20:05:24;;;;;;;16.17;2.03;;;;;;;;;;4981710;28;92222;-65
2021/12/13 20:07:53;;;;;;;9.82;1.70;;;;;;;;;;5005864;28;92445;-66
2021/12/13 20:10:22;;;;;;;5.93;1.75;;;;;;;;;;5011549;28;92151;-65
2021/12/13 20:12:51;;;;;;;8.52;2.20;;;;;;;;;;4995884;28;91700;-65
2021/12/13 20:15:21;;;;;;;2.70;1.92;;;;;;;;;;4991682;28;92033;-65
2021/12/13 20:17:49;;;;;;;6.70;2.40;;;;;;;;;;4978605;28;92448;-65
2021/12/13 20:20:34;;;;;;;3.67;2.00;;;;;;;;;;5002042;28;92959;-65
2021/12/13 20:23:05;;;;;;;11.50;1.98;;;;;;;;;;5009206;28;91455;-65
2021/12/13 20:25:33;;;;;;;4.10;2.03;;;;;;;;;;4995617;28;91986;-66
2021/12/13 20:28:15;;;;;;;9.20;2.25;;;;;;;;;;4990373;28;91786;-63
2021/12/13 20:30:45;;;;;;;9.07;2.13;;;;;;;;;;4990130;28;92202;-63
2021/12/13 20:33:15;;;;;;;4.97;2.00;;;;;;;;;;4997620;28;92145;-68
2021/12/13 20:35:44;;;;;;;5.28;1.90;;;;;;;;;;5005245;28;93873;-67
2021/12/13 20:38:16;;;;;;;3.80;2.20;;;;;;;;;;4991335;28;92093;-67
2021/12/13 20:40:55;;;;;;;3.17;1.88;;;;;;;;;;4988027;28;92348;-68
2021/12/13 20:43:29;;;;;;;2.40;1.92;;;;;;;;;;4994974;28;92012;-67
2021/12/13 20:45:58;;;;;;;2.47;1.90;;;;;;;;;;4984452;28;92104;-67
2021/12/13 20:48:29;;;;;;;3.97;1.98;;;;;;;;;;4996639;28;92940;-67
2021/12/13 20:50:58;;;;;;;3.03;1.73;;;;;;;;;;4994087;28;92243;-67
2021/12/13 20:53:27;;;;;;;2.45;1.80;;;;;;;;;;4996648;28;92101;-67
2021/12/13 20:55:57;;;;;;;3.53;2.00;;;;;;;;;;4990687;28;92153;-68
2021/12/13 20:58:28;;;;;;;4.10;2.30;;;;;;;;;;4999826;28;92013;-68
2021/12/13 21:01:00;;;;;;;1.95;1.70;;;;;;;;;;4993673;28;92990;-67
2021/12/13 21:03:52;;;;;;;2.03;1.63;;;;;;;;;;4994100;28;92520;-67
2021/12/13 21:06:35;;;;;;;3.05;1.98;;;;;;;;;;4992206;28;92155;-67
2021/12/13 21:09:26;;;;;;;25.60;7.07;;;;;;;;;;4986601;28;92178;-67
2021/12/13 21:11:54;;;;;;;46.38;12.30;;;;;;;;;;4991257;28;91984;-67
2021/12/13 21:14:22;;;;;;;54.22;11.70;;;;;;;;;;4986730;28;92493;-67
2021/12/13 21:16:51;;;;;;;47.00;11.18;;;;;;;;;;4992331;28;92069;-65
2021/12/13 21:19:23;;;;;;;50.28;11.32;;;;;;;;;;4987633;28;92185;-67
2021/12/13 21:21:55;;;;;;;55.67;12.43;;;;;;;;;;4979498;28;92443;-67
2021/12/13 21:24:27;;;;;;;57.92;12.98;;;;;;;;;;4990236;28;91894;-67
2021/12/13 21:27:01;;;;;;;55.97;12.27;;;;;;;;;;4976421;28;92291;-67
2021/12/13 21:29:29;;;;;;;44.63;11.35;;;;;;;;;;4976036;28;92469;-67
2021/12/13 21:32:01;;;;;;;56.75;10.75;;;;;;;;;;4976317;28;91920;-67
2021/12/13 21:34:35;;;;;;;46.38;10.43;;;;;;;;;;4975780;28;92765;-67
2021/12/13 21:39:49;;;;;;;40.75;10.40;;;;;;;;;;4976653;28;92178;-67
2021/12/13 21:42:18;;;;;;;36.63;9.52;;;;;;;;;;4976338;28;92243;-67
2021/12/13 21:44:50;;;;;;;33.30;10.25;;;;;;;;;;4978344;28;92097;-67
2021/12/13 21:47:30;;;;;;;35.03;9.32;;;;;;;;;;4974988;28;92550;-67
2021/12/13 21:49:59;;;;;;;34.58;9.35;;;;;;;;;;4977122;28;91915;-67
2021/12/13 21:52:31;;;;;;;28.27;8.20;;;;;;;;;;4976163;28;91931;-67
2021/12/13 21:55:05;;;;;;;28.13;7.95;;;;;;;;;;4976760;28;92245;-67
2021/12/13 21:57:34;;;;;;;30.48;9.68;;;;;;;;;;4975526;28;92235;-67
2021/12/13 22:00:07;;;;;;;26.98;7.97;;;;;;;;;;4986545;28;92052;-67
2021/12/13 22:02:34;;;;;;;22.90;7.38;;;;;;;;;;4977180;28;92414;-68
2021/12/13 22:05:06;;;;;;;25.27;7.70;;;;;;;;;;4978608;28;92215;-67
2021/12/13 22:07:38;;;;;;;24.95;7.55;;;;;;;;;;4977140;28;92215;-67
2021/12/13 22:10:17;;;;;;;18.75;7.55;;;;;;;;;;4964112;28;92193;-67
2021/12/13 22:12:45;;;;;;;27.25;7.53;;;;;;;;;;4976877;28;92807;-67
2021/12/13 22:15:23;;;;;;;26.65;7.10;;;;;;;;;;4976795;28;92402;-67
2021/12/13 22:17:54;;;;;;;19.27;6.72;;;;;;;;;;4976390;28;92574;-67
2021/12/13 22:20:23;;;;;;;26.17;6.57;;;;;;;;;;4976976;28;91831;-67
2021/12/13 22:22:51;;;;;;;18.85;5.95;;;;;;;;;;4980376;28;92293;-68
2021/12/13 22:25:20;;;;;;;19.63;6.00;;;;;;;;;;4990709;28;92042;-68
2021/12/13 22:27:47;;;;;;;19.02;5.90;;;;;;;;;;4978834;28;92134;-67
2021/12/13 22:30:39;;;;;;;17.80;5.57;;;;;;;;;;4975597;28;94157;-67
2021/12/13 22:33:07;;;;;;;15.25;5.93;;;;;;;;;;4974616;28;91904;-67
2021/12/13 22:35:37;;;;;;;13.45;5.63;;;;;;;;;;4976126;28;92174;-68
2021/12/13 22:38:08;;;;;;;18.88;6.05;;;;;;;;;;4988716;28;91730;-68
2021/12/13 22:40:40;;;;;;;18.25;5.43;;;;;;;;;;4996201;28;91896;-67
2021/12/13 22:43:10;;;;;;;14.10;5.18;;;;;;;;;;4996804;28;91941;-68
2021/12/13 22:45:37;;;;;;;15.18;5.38;;;;;;;;;;4976992;28;92772;-67
2021/12/13 22:48:04;;;;;;;9.43;4.55;;;;;;;;;;4989903;28;92015;-67
2021/12/13 22:50:36;;;;;;;14.07;5.65;;;;;;;;;;4979118;28;94938;-67
2021/12/13 22:53:03;;;;;;;16.40;5.60;;;;;;;;;;4975934;28;92054;-68
2021/12/13 22:55:32;;;;;;;12.02;4.80;;;;;;;;;;4975944;28;92189;-68
2021/12/13 22:58:05;;;;;;;13.80;4.88;;;;;;;;;;4987320;28;92981;-67
2021/12/13 23:00:38;;;;;;;14.10;4.38;;;;;;;;;;4976840;28;92176;-67
2021/12/13 23:03:06;;;;;;;12.65;4.82;;;;;;;;;;4976198;28;92578;-67
2021/12/13 23:05:33;;;;;;;10.02;4.32;;;;;;;;;;4992856;28;93064;-68
2021/12/13 23:08:00;;;;;;;11.50;4.72;;;;;;;;;;4985934;28;92097;-68
2021/12/13 23:10:46;;;;;;;11.32;5.28;;;;;;;;;;4976160;28;92275;-68
2021/12/13 23:16:05;;;;;;;7.38;4.20;;;;;;;;;;4989793;28;91983;-68
2021/12/13 23:18:33;;;;;;;6.82;3.92;;;;;;;;;;4976003;28;92101;-68
2021/12/13 23:20:59;;;;;;;8.00;3.80;;;;;;;;;;4988489;28;93832;-68
2021/12/13 23:23:44;;;;;;;12.02;4.47;;;;;;;;;;4985627;28;92150;-68
2021/12/13 23:26:12;;;;;;;12.00;4.72;;;;;;;;;;4975823;28;91996;-67
2021/12/13 23:28:41;;;;;;;10.13;4.25;;;;;;;;;;4975893;28;92404;-68
2021/12/13 23:31:10;;;;;;;6.82;4.25;;;;;;;;;;4975932;28;92007;-67
2021/12/13 23:33:38;;;;;;;10.27;4.85;;;;;;;;;;4975361;28;92071;-68
2021/12/13 23:36:18;;;;;;;8.27;4.43;;;;;;;;;;4978648;28;91967;-68
2021/12/13 23:47:17;;;;;;;6.38;4.30;;;;;;;;;;4978110;28;92972;-67
2021/12/13 23:49:39;;;;;;;6.07;4.00;;;;;;;;;;4980530;28;92150;-67
2021/12/13 23:52:06;;;;;;;6.50;3.90;;;;;;;;;;4975029;28;91899;-68
2021/12/13 23:54:33;;;;;;;7.93;4.10;;;;;;;;;;4984378;28;93254;-67
2021/12/13 23:57:00;;;;;;;5.10;3.53;;;;;;;;;;4983913;28;92197;-66
2021/12/13 23:59:27;;;;;;;8.95;4.57;;;;;;;;;;4984997;28;92993;-67
